sensor_id;sensor_type;location;lat;lon;timestamp;P1;durP1;ratioP1;P2;durP2;ratioP2
28070;SDS011;15383;48.408;9.968;2023-04-24T00:02:12;7.20;;;2.05;;
28070;SDS011;15383;48.408;9.968;2023-04-24T00:04:38;9.50;;;1.88;;
28070;SDS011;15383;48.408;9.968;2023-04-24T00:07:09;7.85;;;1.90;;
28070;SDS011;15383;48.408;9.968;2023-04-24T00:09:35;7.68;;;2.05;;
28070;SDS011;15383;48.408;9.968;2023-04-24T00:12:01;9.30;;;1.77;;
28070;SDS011;15383;48.408;9.968;2023-04-24T00:14:29;7.40;;;2.22;;
28070;SDS011;15383;48.408;9.968;2023-04-24T00:16:55;5.10;;;1.50;;
28070;SDS011;15383;48.408;9.968;2023-04-24T00:19:20;10.05;;;1.65;;
28070;SDS011;15383;48.408;9.968;2023-04-24T00:21:46;3.35;;;1.95;;
28070;SDS011;15383;48.408;9.968;2023-04-24T00:24:14;3.17;;;1.23;;
28070;SDS011;15383;48.408;9.968;2023-04-24T00:26:41;4.95;;;1.77;;
28070;SDS011;15383;48.408;9.968;2023-04-24T00:29:07;6.90;;;1.45;;
28070;SDS011;15383;48.408;9.968;2023-04-24T00:31:32;4.90;;;1.45;;
28070;SDS011;15383;48.408;9.968;2023-04-24T00:33:59;9.38;;;1.98;;
28070;SDS011;15383;48.408;9.968;2023-04-24T00:36:27;3.13;;;1.50;;
28070;SDS011;15383;48.408;9.968;2023-04-24T00:38:53;3.50;;;1.52;;
28070;SDS011;15383;48.408;9.968;2023-04-24T00:41:19;4.93;;;1.30;;
28070;SDS011;15383;48.408;9.968;2023-04-24T00:43:45;5.60;;;1.63;;
28070;SDS011;15383;48.408;9.968;2023-04-24T00:46:11;9.02;;;1.58;;
28070;SDS011;15383;48.408;9.968;2023-04-24T00:48:41;4.30;;;1.40;;
28070;SDS011;15383;48.408;9.968;2023-04-24T00:51:07;3.67;;;1.48;;
28070;SDS011;15383;48.408;9.968;2023-04-24T00:53:33;2.00;;;1.38;;
28070;SDS011;15383;48.408;9.968;2023-04-24T00:55:58;7.63;;;1.58;;
28070;SDS011;15383;48.408;9.968;2023-04-24T00:58:25;3.25;;;1.25;;
28070;SDS011;15383;48.408;9.968;2023-04-24T01:00:52;6.10;;;1.20;;
28070;SDS011;15383;48.408;9.968;2023-04-24T01:03:22;6.07;;;1.25;;
28070;SDS011;15383;48.408;9.968;2023-04-24T01:05:54;4.32;;;1.33;;
28070;SDS011;15383;48.408;9.968;2023-04-24T01:08:20;3.13;;;1.35;;
28070;SDS011;15383;48.408;9.968;2023-04-24T01:10:48;3.00;;;1.55;;
28070;SDS011;15383;48.408;9.968;2023-04-24T01:13:16;4.57;;;1.35;;
28070;SDS011;15383;48.408;9.968;2023-04-24T01:15:42;3.47;;;1.20;;
28070;SDS011;15383;48.408;9.968;2023-04-24T01:18:08;1.63;;;0.90;;
28070;SDS011;15383;48.408;9.968;2023-04-24T01:20:33;7.82;;;1.42;;
28070;SDS011;15383;48.408;9.968;2023-04-24T01:23:01;4.05;;;1.33;;
28070;SDS011;15383;48.408;9.968;2023-04-24T01:25:27;2.65;;;1.60;;
28070;SDS011;15383;48.408;9.968;2023-04-24T01:27:53;6.68;;;1.17;;
28070;SDS011;15383;48.408;9.968;2023-04-24T01:30:19;3.13;;;1.30;;
28070;SDS011;15383;48.408;9.968;2023-04-24T01:32:44;4.65;;;1.30;;
28070;SDS011;15383;48.408;9.968;2023-04-24T01:35:10;2.58;;;1.10;;
28070;SDS011;15383;48.408;9.968;2023-04-24T01:37:36;4.10;;;1.17;;
28070;SDS011;15383;48.408;9.968;2023-04-24T01:40:05;4.38;;;1.10;;
28070;SDS011;15383;48.408;9.968;2023-04-24T01:42:32;9.18;;;1.52;;
28070;SDS011;15383;48.408;9.968;2023-04-24T01:44:59;2.55;;;1.20;;
28070;SDS011;15383;48.408;9.968;2023-04-24T01:47:25;1.42;;;0.98;;
28070;SDS011;15383;48.408;9.968;2023-04-24T01:49:51;2.05;;;1.00;;
28070;SDS011;15383;48.408;9.968;2023-04-24T01:52:17;3.35;;;1.20;;
28070;SDS011;15383;48.408;9.968;2023-04-24T01:54:43;1.50;;;0.98;;
28070;SDS011;15383;48.408;9.968;2023-04-24T01:57:10;2.65;;;1.00;;
28070;SDS011;15383;48.408;9.968;2023-04-24T01:59:36;5.10;;;0.80;;
28070;SDS011;15383;48.408;9.968;2023-04-24T02:02:05;2.35;;;1.02;;
28070;SDS011;15383;48.408;9.968;2023-04-24T02:04:30;3.15;;;0.98;;
28070;SDS011;15383;48.408;9.968;2023-04-24T02:06:56;2.60;;;1.00;;
28070;SDS011;15383;48.408;9.968;2023-04-24T02:09:22;1.02;;;0.95;;
28070;SDS011;15383;48.408;9.968;2023-04-24T02:11:47;3.47;;;1.00;;
28070;SDS011;15383;48.408;9.968;2023-04-24T02:14:13;1.05;;;0.85;;
28070;SDS011;15383;48.408;9.968;2023-04-24T02:16:38;5.70;;;1.20;;
28070;SDS011;15383;48.408;9.968;2023-04-24T02:19:04;3.13;;;1.52;;
28070;SDS011;15383;48.408;9.968;2023-04-24T02:21:30;1.25;;;1.10;;
28070;SDS011;15383;48.408;9.968;2023-04-24T02:23:56;1.88;;;1.00;;
28070;SDS011;15383;48.408;9.968;2023-04-24T02:26:22;2.08;;;1.20;;
28070;SDS011;15383;48.408;9.968;2023-04-24T02:28:47;3.78;;;1.02;;
28070;SDS011;15383;48.408;9.968;2023-04-24T02:31:13;1.33;;;0.90;;
28070;SDS011;15383;48.408;9.968;2023-04-24T02:33:39;1.95;;;0.98;;
28070;SDS011;15383;48.408;9.968;2023-04-24T02:36:04;1.83;;;1.15;;
28070;SDS011;15383;48.408;9.968;2023-04-24T02:38:30;4.28;;;1.10;;
28070;SDS011;15383;48.408;9.968;2023-04-24T02:40:56;2.38;;;0.98;;
28070;SDS011;15383;48.408;9.968;2023-04-24T02:43:21;1.17;;;0.90;;
28070;SDS011;15383;48.408;9.968;2023-04-24T02:45:47;1.67;;;1.05;;
28070;SDS011;15383;48.408;9.968;2023-04-24T02:48:12;3.63;;;1.27;;
28070;SDS011;15383;48.408;9.968;2023-04-24T02:50:38;0.80;;;0.80;;
28070;SDS011;15383;48.408;9.968;2023-04-24T02:53:03;1.95;;;1.08;;
28070;SDS011;15383;48.408;9.968;2023-04-24T02:55:29;1.88;;;1.00;;
28070;SDS011;15383;48.408;9.968;2023-04-24T02:57:55;2.17;;;1.23;;
28070;SDS011;15383;48.408;9.968;2023-04-24T03:00:20;1.67;;;0.93;;
28070;SDS011;15383;48.408;9.968;2023-04-24T03:02:46;2.22;;;0.70;;
28070;SDS011;15383;48.408;9.968;2023-04-24T03:05:12;1.02;;;0.90;;
28070;SDS011;15383;48.408;9.968;2023-04-24T03:07:37;2.90;;;1.00;;
28070;SDS011;15383;48.408;9.968;2023-04-24T03:10:03;1.58;;;1.13;;
28070;SDS011;15383;48.408;9.968;2023-04-24T03:12:30;1.48;;;1.10;;
28070;SDS011;15383;48.408;9.968;2023-04-24T03:14:56;0.95;;;0.73;;
28070;SDS011;15383;48.408;9.968;2023-04-24T03:17:21;2.58;;;1.10;;
28070;SDS011;15383;48.408;9.968;2023-04-24T03:19:47;1.20;;;1.10;;
28070;SDS011;15383;48.408;9.968;2023-04-24T03:22:13;1.45;;;0.90;;
28070;SDS011;15383;48.408;9.968;2023-04-24T03:24:38;1.05;;;0.90;;
28070;SDS011;15383;48.408;9.968;2023-04-24T03:27:04;2.28;;;0.90;;
28070;SDS011;15383;48.408;9.968;2023-04-24T03:29:29;1.77;;;0.80;;
28070;SDS011;15383;48.408;9.968;2023-04-24T03:31:55;1.13;;;0.90;;
28070;SDS011;15383;48.408;9.968;2023-04-24T03:34:20;1.42;;;1.10;;
28070;SDS011;15383;48.408;9.968;2023-04-24T03:36:46;3.90;;;1.13;;
28070;SDS011;15383;48.408;9.968;2023-04-24T03:39:14;6.57;;;1.63;;
28070;SDS011;15383;48.408;9.968;2023-04-24T03:41:40;3.50;;;1.05;;
28070;SDS011;15383;48.408;9.968;2023-04-24T03:44:06;4.25;;;1.05;;
28070;SDS011;15383;48.408;9.968;2023-04-24T03:46:31;2.03;;;1.02;;
28070;SDS011;15383;48.408;9.968;2023-04-24T03:48:57;1.98;;;0.95;;
28070;SDS011;15383;48.408;9.968;2023-04-24T03:51:22;2.10;;;1.20;;
28070;SDS011;15383;48.408;9.968;2023-04-24T03:53:48;2.95;;;1.05;;
28070;SDS011;15383;48.408;9.968;2023-04-24T03:56:14;4.32;;;0.70;;
28070;SDS011;15383;48.408;9.968;2023-04-24T03:58:40;1.15;;;1.00;;
28070;SDS011;15383;48.408;9.968;2023-04-24T04:01:05;2.15;;;1.10;;
28070;SDS011;15383;48.408;9.968;2023-04-24T04:03:31;1.75;;;1.10;;
28070;SDS011;15383;48.408;9.968;2023-04-24T04:05:57;8.25;;;1.20;;
28070;SDS011;15383;48.408;9.968;2023-04-24T04:08:22;1.23;;;0.93;;
28070;SDS011;15383;48.408;9.968;2023-04-24T04:10:48;2.83;;;0.85;;
28070;SDS011;15383;48.408;9.968;2023-04-24T04:13:14;3.05;;;1.02;;
28070;SDS011;15383;48.408;9.968;2023-04-24T04:15:39;4.20;;;1.10;;
28070;SDS011;15383;48.408;9.968;2023-04-24T04:18:05;0.98;;;0.63;;
28070;SDS011;15383;48.408;9.968;2023-04-24T04:20:31;1.95;;;1.08;;
28070;SDS011;15383;48.408;9.968;2023-04-24T04:22:56;0.85;;;0.85;;
28070;SDS011;15383;48.408;9.968;2023-04-24T04:25:22;4.93;;;1.15;;
28070;SDS011;15383;48.408;9.968;2023-04-24T04:27:48;10.10;;;1.20;;
28070;SDS011;15383;48.408;9.968;2023-04-24T04:30:14;8.93;;;1.30;;
28070;SDS011;15383;48.408;9.968;2023-04-24T04:32:40;6.90;;;1.33;;
28070;SDS011;15383;48.408;9.968;2023-04-24T04:35:05;11.45;;;1.23;;
28070;SDS011;15383;48.408;9.968;2023-04-24T04:37:32;4.20;;;1.00;;
28070;SDS011;15383;48.408;9.968;2023-04-24T04:39:58;5.15;;;1.20;;
28070;SDS011;15383;48.408;9.968;2023-04-24T04:42:31;5.85;;;1.42;;
28070;SDS011;15383;48.408;9.968;2023-04-24T04:44:58;9.85;;;1.02;;
28070;SDS011;15383;48.408;9.968;2023-04-24T04:47:24;3.90;;;1.90;;
28070;SDS011;15383;48.408;9.968;2023-04-24T04:49:51;10.23;;;1.08;;
28070;SDS011;15383;48.408;9.968;2023-04-24T04:52:17;18.02;;;1.70;;
28070;SDS011;15383;48.408;9.968;2023-04-24T04:54:43;5.05;;;1.27;;
28070;SDS011;15383;48.408;9.968;2023-04-24T04:57:08;1.25;;;0.98;;
28070;SDS011;15383;48.408;9.968;2023-04-24T04:59:35;1.70;;;1.20;;
28070;SDS011;15383;48.408;9.968;2023-04-24T05:02:00;4.43;;;1.17;;
28070;SDS011;15383;48.408;9.968;2023-04-24T05:04:26;4.03;;;1.10;;
28070;SDS011;15383;48.408;9.968;2023-04-24T05:06:52;5.88;;;1.10;;
28070;SDS011;15383;48.408;9.968;2023-04-24T05:09:17;3.75;;;1.10;;
28070;SDS011;15383;48.408;9.968;2023-04-24T05:11:43;1.00;;;0.90;;
28070;SDS011;15383;48.408;9.968;2023-04-24T05:14:09;2.67;;;1.48;;
28070;SDS011;15383;48.408;9.968;2023-04-24T05:16:35;1.88;;;1.10;;
28070;SDS011;15383;48.408;9.968;2023-04-24T05:19:01;3.95;;;0.82;;
28070;SDS011;15383;48.408;9.968;2023-04-24T05:21:27;3.58;;;1.20;;
28070;SDS011;15383;48.408;9.968;2023-04-24T05:23:53;3.10;;;1.35;;
28070;SDS011;15383;48.408;9.968;2023-04-24T05:26:18;4.82;;;0.98;;
28070;SDS011;15383;48.408;9.968;2023-04-24T05:28:44;2.60;;;1.42;;
28070;SDS011;15383;48.408;9.968;2023-04-24T05:31:10;9.60;;;2.45;;
28070;SDS011;15383;48.408;9.968;2023-04-24T05:33:37;11.30;;;1.88;;
28070;SDS011;15383;48.408;9.968;2023-04-24T05:36:02;9.80;;;1.80;;
28070;SDS011;15383;48.408;9.968;2023-04-24T05:38:29;2.85;;;1.88;;
28070;SDS011;15383;48.408;9.968;2023-04-24T05:40:54;6.35;;;1.50;;
28070;SDS011;15383;48.408;9.968;2023-04-24T05:43:20;1.73;;;1.45;;
28070;SDS011;15383;48.408;9.968;2023-04-24T05:45:45;2.45;;;1.10;;
28070;SDS011;15383;48.408;9.968;2023-04-24T05:48:11;6.70;;;1.90;;
28070;SDS011;15383;48.408;9.968;2023-04-24T05:50:36;5.85;;;1.55;;
28070;SDS011;15383;48.408;9.968;2023-04-24T05:53:02;5.25;;;1.55;;
28070;SDS011;15383;48.408;9.968;2023-04-24T05:55:28;4.07;;;1.75;;
28070;SDS011;15383;48.408;9.968;2023-04-24T05:57:55;20.15;;;2.00;;
28070;SDS011;15383;48.408;9.968;2023-04-24T06:00:20;12.25;;;2.20;;
28070;SDS011;15383;48.408;9.968;2023-04-24T06:02:46;11.32;;;2.38;;
28070;SDS011;15383;48.408;9.968;2023-04-24T06:05:12;19.02;;;2.38;;
28070;SDS011;15383;48.408;9.968;2023-04-24T06:07:37;65.57;;;4.40;;
28070;SDS011;15383;48.408;9.968;2023-04-24T06:10:03;12.15;;;2.55;;
28070;SDS011;15383;48.408;9.968;2023-04-24T06:12:29;13.85;;;2.42;;
28070;SDS011;15383;48.408;9.968;2023-04-24T06:14:55;10.98;;;2.83;;
28070;SDS011;15383;48.408;9.968;2023-04-24T06:17:21;16.90;;;1.90;;
28070;SDS011;15383;48.408;9.968;2023-04-24T06:19:46;22.60;;;2.55;;
28070;SDS011;15383;48.408;9.968;2023-04-24T06:22:12;12.43;;;2.15;;
28070;SDS011;15383;48.408;9.968;2023-04-24T06:24:39;18.65;;;2.33;;
28070;SDS011;15383;48.408;9.968;2023-04-24T06:27:05;16.00;;;2.05;;
28070;SDS011;15383;48.408;9.968;2023-04-24T06:29:30;10.98;;;2.22;;
28070;SDS011;15383;48.408;9.968;2023-04-24T06:31:56;7.07;;;2.17;;
28070;SDS011;15383;48.408;9.968;2023-04-24T06:34:21;7.55;;;2.25;;
28070;SDS011;15383;48.408;9.968;2023-04-24T06:36:47;13.27;;;2.00;;
28070;SDS011;15383;48.408;9.968;2023-04-24T06:39:12;8.35;;;2.25;;
28070;SDS011;15383;48.408;9.968;2023-04-24T06:41:38;7.95;;;2.58;;
28070;SDS011;15383;48.408;9.968;2023-04-24T06:44:05;12.23;;;1.75;;
28070;SDS011;15383;48.408;9.968;2023-04-24T06:46:31;15.15;;;2.08;;
28070;SDS011;15383;48.408;9.968;2023-04-24T06:48:56;9.98;;;2.00;;
28070;SDS011;15383;48.408;9.968;2023-04-24T06:51:25;8.52;;;2.33;;
28070;SDS011;15383;48.408;9.968;2023-04-24T06:56:18;13.65;;;2.38;;
28070;SDS011;15383;48.408;9.968;2023-04-24T06:58:45;10.27;;;2.15;;
28070;SDS011;15383;48.408;9.968;2023-04-24T07:01:10;11.55;;;2.50;;
28070;SDS011;15383;48.408;9.968;2023-04-24T07:03:36;4.95;;;1.60;;
28070;SDS011;15383;48.408;9.968;2023-04-24T07:06:02;17.48;;;2.45;;
28070;SDS011;15383;48.408;9.968;2023-04-24T07:08:29;17.48;;;2.30;;
28070;SDS011;15383;48.408;9.968;2023-04-24T07:10:58;11.67;;;1.80;;
28070;SDS011;15383;48.408;9.968;2023-04-24T07:13:24;8.48;;;1.88;;
28070;SDS011;15383;48.408;9.968;2023-04-24T07:15:50;22.00;;;1.73;;
28070;SDS011;15383;48.408;9.968;2023-04-24T07:18:17;5.20;;;1.85;;
28070;SDS011;15383;48.408;9.968;2023-04-24T07:20:43;20.85;;;2.55;;
28070;SDS011;15383;48.408;9.968;2023-04-24T07:23:09;4.20;;;2.40;;
28070;SDS011;15383;48.408;9.968;2023-04-24T07:25:35;21.50;;;2.50;;
28070;SDS011;15383;48.408;9.968;2023-04-24T07:28:01;16.67;;;2.13;;
28070;SDS011;15383;48.408;9.968;2023-04-24T07:30:26;8.02;;;2.28;;
28070;SDS011;15383;48.408;9.968;2023-04-24T07:32:54;16.08;;;1.73;;
28070;SDS011;15383;48.408;9.968;2023-04-24T07:35:20;8.40;;;1.70;;
28070;SDS011;15383;48.408;9.968;2023-04-24T07:37:46;11.25;;;2.00;;
28070;SDS011;15383;48.408;9.968;2023-04-24T07:40:12;5.72;;;2.47;;
28070;SDS011;15383;48.408;9.968;2023-04-24T07:42:38;4.78;;;1.90;;
28070;SDS011;15383;48.408;9.968;2023-04-24T07:45:04;7.45;;;2.65;;
28070;SDS011;15383;48.408;9.968;2023-04-24T07:47:30;8.38;;;1.70;;
28070;SDS011;15383;48.408;9.968;2023-04-24T07:49:56;2.58;;;1.33;;
28070;SDS011;15383;48.408;9.968;2023-04-24T07:52:22;6.15;;;1.75;;
28070;SDS011;15383;48.408;9.968;2023-04-24T07:54:48;13.85;;;6.43;;
28070;SDS011;15383;48.408;9.968;2023-04-24T07:57:14;18.30;;;7.28;;
28070;SDS011;15383;48.408;9.968;2023-04-24T07:59:40;7.80;;;4.13;;
28070;SDS011;15383;48.408;9.968;2023-04-24T08:02:06;11.15;;;3.70;;
28070;SDS011;15383;48.408;9.968;2023-04-24T08:04:32;5.80;;;2.30;;
28070;SDS011;15383;48.408;9.968;2023-04-24T08:06:58;7.95;;;2.10;;
28070;SDS011;15383;48.408;9.968;2023-04-24T08:09:23;2.92;;;1.50;;
28070;SDS011;15383;48.408;9.968;2023-04-24T08:11:49;4.72;;;1.65;;
28070;SDS011;15383;48.408;9.968;2023-04-24T08:14:14;4.22;;;1.30;;
28070;SDS011;15383;48.408;9.968;2023-04-24T08:16:40;2.08;;;0.95;;
28070;SDS011;15383;48.408;9.968;2023-04-24T08:19:06;1.40;;;1.27;;
28070;SDS011;15383;48.408;9.968;2023-04-24T08:21:32;10.85;;;1.20;;
28070;SDS011;15383;48.408;9.968;2023-04-24T08:23:57;5.55;;;1.08;;
28070;SDS011;15383;48.408;9.968;2023-04-24T08:26:23;3.28;;;1.60;;
28070;SDS011;15383;48.408;9.968;2023-04-24T08:28:49;4.90;;;1.10;;
28070;SDS011;15383;48.408;9.968;2023-04-24T08:31:15;4.38;;;1.30;;
28070;SDS011;15383;48.408;9.968;2023-04-24T08:33:40;2.58;;;1.25;;
28070;SDS011;15383;48.408;9.968;2023-04-24T08:36:06;13.23;;;1.70;;
28070;SDS011;15383;48.408;9.968;2023-04-24T08:38:32;3.70;;;1.42;;
28070;SDS011;15383;48.408;9.968;2023-04-24T08:40:59;19.30;;;2.72;;
28070;SDS011;15383;48.408;9.968;2023-04-24T08:43:25;16.35;;;1.80;;
28070;SDS011;15383;48.408;9.968;2023-04-24T08:45:52;25.92;;;1.70;;
28070;SDS011;15383;48.408;9.968;2023-04-24T08:48:20;6.05;;;1.50;;
28070;SDS011;15383;48.408;9.968;2023-04-24T08:50:47;1.90;;;1.05;;
28070;SDS011;15383;48.408;9.968;2023-04-24T08:53:15;7.40;;;1.17;;
28070;SDS011;15383;48.408;9.968;2023-04-24T08:55:41;6.07;;;1.63;;
28070;SDS011;15383;48.408;9.968;2023-04-24T08:58:11;2.78;;;1.00;;
28070;SDS011;15383;48.408;9.968;2023-04-24T09:00:38;7.90;;;1.30;;
28070;SDS011;15383;48.408;9.968;2023-04-24T09:03:04;23.25;;;1.83;;
28070;SDS011;15383;48.408;9.968;2023-04-24T09:05:31;23.20;;;2.13;;
28070;SDS011;15383;48.408;9.968;2023-04-24T09:07:58;4.32;;;1.20;;
28070;SDS011;15383;48.408;9.968;2023-04-24T09:10:26;7.65;;;1.25;;
28070;SDS011;15383;48.408;9.968;2023-04-24T09:12:55;4.63;;;1.42;;
28070;SDS011;15383;48.408;9.968;2023-04-24T09:15:23;1.25;;;0.88;;
28070;SDS011;15383;48.408;9.968;2023-04-24T09:17:49;6.80;;;1.20;;
28070;SDS011;15383;48.408;9.968;2023-04-24T09:20:15;9.80;;;1.38;;
28070;SDS011;15383;48.408;9.968;2023-04-24T09:22:41;15.40;;;2.08;;
28070;SDS011;15383;48.408;9.968;2023-04-24T09:25:08;17.35;;;1.60;;
28070;SDS011;15383;48.408;9.968;2023-04-24T09:27:36;13.82;;;1.35;;
28070;SDS011;15383;48.408;9.968;2023-04-24T09:30:08;12.23;;;1.83;;
28070;SDS011;15383;48.408;9.968;2023-04-24T09:32:34;11.38;;;1.60;;
28070;SDS011;15383;48.408;9.968;2023-04-24T09:35:12;9.35;;;1.48;;
28070;SDS011;15383;48.408;9.968;2023-04-24T09:37:40;3.20;;;1.45;;
28070;SDS011;15383;48.408;9.968;2023-04-24T09:40:10;8.73;;;1.20;;
28070;SDS011;15383;48.408;9.968;2023-04-24T09:43:02;8.05;;;1.77;;
28070;SDS011;15383;48.408;9.968;2023-04-24T09:45:28;6.88;;;1.30;;
28070;SDS011;15383;48.408;9.968;2023-04-24T09:47:59;18.48;;;1.55;;
28070;SDS011;15383;48.408;9.968;2023-04-24T09:50:25;8.63;;;1.10;;
28070;SDS011;15383;48.408;9.968;2023-04-24T09:53:04;7.93;;;1.58;;
28070;SDS011;15383;48.408;9.968;2023-04-24T09:55:33;12.23;;;1.90;;
28070;SDS011;15383;48.408;9.968;2023-04-24T09:58:05;5.18;;;1.33;;
28070;SDS011;15383;48.408;9.968;2023-04-24T10:00:33;2.03;;;1.13;;
28070;SDS011;15383;48.408;9.968;2023-04-24T10:03:02;6.38;;;1.15;;
28070;SDS011;15383;48.408;9.968;2023-04-24T10:05:30;6.00;;;1.10;;
28070;SDS011;15383;48.408;9.968;2023-04-24T10:08:01;2.45;;;1.25;;
28070;SDS011;15383;48.408;9.968;2023-04-24T10:10:31;2.83;;;1.02;;
28070;SDS011;15383;48.408;9.968;2023-04-24T10:12:58;3.33;;;0.75;;
28070;SDS011;15383;48.408;9.968;2023-04-24T10:15:25;2.08;;;1.20;;
28070;SDS011;15383;48.408;9.968;2023-04-24T10:17:52;11.45;;;1.75;;
28070;SDS011;15383;48.408;9.968;2023-04-24T10:20:18;4.55;;;1.17;;
28070;SDS011;15383;48.408;9.968;2023-04-24T10:22:46;1.73;;;1.20;;
28070;SDS011;15383;48.408;9.968;2023-04-24T10:25:16;2.25;;;1.10;;
28070;SDS011;15383;48.408;9.968;2023-04-24T10:27:43;0.95;;;0.90;;
28070;SDS011;15383;48.408;9.968;2023-04-24T10:30:11;2.03;;;0.95;;
28070;SDS011;15383;48.408;9.968;2023-04-24T10:32:37;2.40;;;1.10;;
28070;SDS011;15383;48.408;9.968;2023-04-24T10:35:03;3.75;;;1.17;;
28070;SDS011;15383;48.408;9.968;2023-04-24T10:37:29;10.50;;;0.95;;
28070;SDS011;15383;48.408;9.968;2023-04-24T10:40:01;11.80;;;1.45;;
28070;SDS011;15383;48.408;9.968;2023-04-24T10:42:28;8.50;;;1.20;;
28070;SDS011;15383;48.408;9.968;2023-04-24T10:44:53;9.70;;;1.25;;
28070;SDS011;15383;48.408;9.968;2023-04-24T10:47:20;9.20;;;1.38;;
28070;SDS011;15383;48.408;9.968;2023-04-24T10:49:46;6.20;;;1.17;;
28070;SDS011;15383;48.408;9.968;2023-04-24T10:52:15;3.05;;;1.17;;
28070;SDS011;15383;48.408;9.968;2023-04-24T10:54:45;4.72;;;1.08;;
28070;SDS011;15383;48.408;9.968;2023-04-24T10:59:51;6.32;;;1.30;;
28070;SDS011;15383;48.408;9.968;2023-04-24T11:02:38;1.92;;;1.33;;
28070;SDS011;15383;48.408;9.968;2023-04-24T11:05:08;4.03;;;0.90;;
28070;SDS011;15383;48.408;9.968;2023-04-24T11:10:39;7.45;;;1.35;;
28070;SDS011;15383;48.408;9.968;2023-04-24T11:13:09;1.00;;;0.90;;
28070;SDS011;15383;48.408;9.968;2023-04-24T11:15:35;4.32;;;0.93;;
28070;SDS011;15383;48.408;9.968;2023-04-24T11:18:00;2.58;;;0.80;;
28070;SDS011;15383;48.408;9.968;2023-04-24T11:20:26;8.40;;;1.02;;
28070;SDS011;15383;48.408;9.968;2023-04-24T11:22:55;8.43;;;1.27;;
28070;SDS011;15383;48.408;9.968;2023-04-24T11:25:22;1.27;;;1.08;;
28070;SDS011;15383;48.408;9.968;2023-04-24T11:27:48;7.38;;;1.27;;
28070;SDS011;15383;48.408;9.968;2023-04-24T11:30:19;23.20;;;3.28;;
28070;SDS011;15383;48.408;9.968;2023-04-24T11:32:48;9.48;;;3.63;;
28070;SDS011;15383;48.408;9.968;2023-04-24T11:35:17;17.75;;;4.20;;
28070;SDS011;15383;48.408;9.968;2023-04-24T11:37:50;21.38;;;4.82;;
28070;SDS011;15383;48.408;9.968;2023-04-24T11:40:17;18.77;;;4.78;;
28070;SDS011;15383;48.408;9.968;2023-04-24T11:42:48;15.95;;;6.60;;
28070;SDS011;15383;48.408;9.968;2023-04-24T11:45:23;29.38;;;6.38;;
28070;SDS011;15383;48.408;9.968;2023-04-24T11:47:50;17.35;;;4.95;;
28070;SDS011;15383;48.408;9.968;2023-04-24T11:50:17;16.60;;;6.65;;
28070;SDS011;15383;48.408;9.968;2023-04-24T11:52:45;11.35;;;5.97;;
28070;SDS011;15383;48.408;9.968;2023-04-24T11:57:42;23.40;;;7.18;;
28070;SDS011;15383;48.408;9.968;2023-04-24T12:00:30;25.98;;;7.68;;
28070;SDS011;15383;48.408;9.968;2023-04-24T12:03:05;21.50;;;7.47;;
28070;SDS011;15383;48.408;9.968;2023-04-24T12:05:32;31.38;;;8.25;;
28070;SDS011;15383;48.408;9.968;2023-04-24T12:07:59;18.70;;;7.85;;
28070;SDS011;15383;48.408;9.968;2023-04-24T12:10:26;23.85;;;7.60;;
28070;SDS011;15383;48.408;9.968;2023-04-24T12:12:53;15.48;;;7.82;;
28070;SDS011;15383;48.408;9.968;2023-04-24T12:15:20;30.17;;;7.78;;
28070;SDS011;15383;48.408;9.968;2023-04-24T12:17:46;21.92;;;7.40;;
28070;SDS011;15383;48.408;9.968;2023-04-24T12:20:13;19.05;;;6.28;;
28070;SDS011;15383;48.408;9.968;2023-04-24T12:25:19;20.42;;;6.43;;
28070;SDS011;15383;48.408;9.968;2023-04-24T12:27:51;16.40;;;6.03;;
28070;SDS011;15383;48.408;9.968;2023-04-24T12:30:18;23.52;;;6.18;;
28070;SDS011;15383;48.408;9.968;2023-04-24T12:32:48;17.48;;;6.57;;
28070;SDS011;15383;48.408;9.968;2023-04-24T12:35:21;20.13;;;6.47;;
28070;SDS011;15383;48.408;9.968;2023-04-24T12:37:47;25.27;;;6.03;;
28070;SDS011;15383;48.408;9.968;2023-04-24T12:40:13;23.95;;;5.45;;
28070;SDS011;15383;48.408;9.968;2023-04-24T12:42:46;24.67;;;7.38;;
28070;SDS011;15383;48.408;9.968;2023-04-24T12:45:13;35.20;;;7.82;;
28070;SDS011;15383;48.408;9.968;2023-04-24T12:47:40;29.48;;;7.82;;
28070;SDS011;15383;48.408;9.968;2023-04-24T12:50:07;26.23;;;6.78;;
28070;SDS011;15383;48.408;9.968;2023-04-24T12:52:33;27.20;;;6.85;;
28070;SDS011;15383;48.408;9.968;2023-04-24T12:55:00;20.20;;;6.80;;
28070;SDS011;15383;48.408;9.968;2023-04-24T12:57:26;23.45;;;7.03;;
28070;SDS011;15383;48.408;9.968;2023-04-24T12:59:54;24.02;;;6.90;;
28070;SDS011;15383;48.408;9.968;2023-04-24T13:02:21;17.95;;;5.72;;
28070;SDS011;15383;48.408;9.968;2023-04-24T13:04:50;19.87;;;5.80;;
28070;SDS011;15383;48.408;9.968;2023-04-24T13:07:16;11.63;;;5.22;;
28070;SDS011;15383;48.408;9.968;2023-04-24T13:09:42;22.88;;;6.22;;
28070;SDS011;15383;48.408;9.968;2023-04-24T13:12:09;20.00;;;6.43;;
28070;SDS011;15383;48.408;9.968;2023-04-24T13:14:35;29.48;;;5.75;;
28070;SDS011;15383;48.408;9.968;2023-04-24T13:17:01;20.10;;;6.15;;
28070;SDS011;15383;48.408;9.968;2023-04-24T13:19:27;19.60;;;5.18;;
28070;SDS011;15383;48.408;9.968;2023-04-24T13:21:54;19.95;;;5.35;;
28070;SDS011;15383;48.408;9.968;2023-04-24T13:24:21;16.42;;;5.57;;
28070;SDS011;15383;48.408;9.968;2023-04-24T13:26:51;25.58;;;5.93;;
28070;SDS011;15383;48.408;9.968;2023-04-24T13:29:19;21.27;;;5.13;;
28070;SDS011;15383;48.408;9.968;2023-04-24T13:31:49;16.65;;;4.85;;
28070;SDS011;15383;48.408;9.968;2023-04-24T13:34:16;15.55;;;4.95;;
28070;SDS011;15383;48.408;9.968;2023-04-24T13:36:43;18.40;;;4.78;;
28070;SDS011;15383;48.408;9.968;2023-04-24T13:39:09;10.93;;;4.30;;
28070;SDS011;15383;48.408;9.968;2023-04-24T13:41:35;16.65;;;4.60;;
28070;SDS011;15383;48.408;9.968;2023-04-24T13:44:01;17.48;;;4.32;;
28070;SDS011;15383;48.408;9.968;2023-04-24T13:46:27;11.73;;;4.00;;
28070;SDS011;15383;48.408;9.968;2023-04-24T13:48:53;11.57;;;4.25;;
28070;SDS011;15383;48.408;9.968;2023-04-24T13:51:18;13.50;;;4.22;;
28070;SDS011;15383;48.408;9.968;2023-04-24T13:53:44;14.25;;;3.97;;
28070;SDS011;15383;48.408;9.968;2023-04-24T13:56:09;13.40;;;4.20;;
28070;SDS011;15383;48.408;9.968;2023-04-24T13:58:37;13.13;;;3.90;;
28070;SDS011;15383;48.408;9.968;2023-04-24T14:01:03;7.93;;;3.78;;
28070;SDS011;15383;48.408;9.968;2023-04-24T14:03:29;13.73;;;3.95;;
28070;SDS011;15383;48.408;9.968;2023-04-24T14:05:54;12.52;;;4.10;;
28070;SDS011;15383;48.408;9.968;2023-04-24T14:08:20;10.73;;;3.55;;
28070;SDS011;15383;48.408;9.968;2023-04-24T14:10:46;9.63;;;3.28;;
28070;SDS011;15383;48.408;9.968;2023-04-24T14:13:11;11.65;;;4.00;;
28070;SDS011;15383;48.408;9.968;2023-04-24T14:15:37;15.77;;;3.45;;
28070;SDS011;15383;48.408;9.968;2023-04-24T14:18:03;11.25;;;3.53;;
28070;SDS011;15383;48.408;9.968;2023-04-24T14:20:29;8.90;;;3.40;;
28070;SDS011;15383;48.408;9.968;2023-04-24T14:22:54;7.38;;;2.70;;
28070;SDS011;15383;48.408;9.968;2023-04-24T14:25:20;8.75;;;2.95;;
28070;SDS011;15383;48.408;9.968;2023-04-24T14:27:47;9.43;;;2.80;;
28070;SDS011;15383;48.408;9.968;2023-04-24T14:30:13;12.73;;;2.95;;
28070;SDS011;15383;48.408;9.968;2023-04-24T14:32:40;9.38;;;2.97;;
28070;SDS011;15383;48.408;9.968;2023-04-24T14:35:06;8.00;;;2.83;;
28070;SDS011;15383;48.408;9.968;2023-04-24T14:37:32;9.98;;;3.10;;
28070;SDS011;15383;48.408;9.968;2023-04-24T14:39:58;8.02;;;2.47;;
28070;SDS011;15383;48.408;9.968;2023-04-24T14:42:23;10.65;;;2.70;;
28070;SDS011;15383;48.408;9.968;2023-04-24T14:44:49;12.77;;;3.17;;
28070;SDS011;15383;48.408;9.968;2023-04-24T14:47:15;8.13;;;2.20;;
28070;SDS011;15383;48.408;9.968;2023-04-24T14:49:42;20.33;;;1.73;;
28070;SDS011;15383;48.408;9.968;2023-04-24T14:52:11;4.53;;;1.52;;
28070;SDS011;15383;48.408;9.968;2023-04-24T14:54:37;6.47;;;2.05;;